Time;durP1;ratioP1;P1;durP2;ratioP2;P2;SDS_P1;SDS_P2;PMS_P1;PMS_P2;Temp;Humidity;BMP_temperature;BMP_pressure;BME280_temperature;BME280_humidity;BME280_pressure;Samples;Min_cycle;Max_cycle;Signal;HPM_P1;HPM_P2
2022/10/08 00:00:17;;;;;;;11.55;3.30;;;13.30;99.90;;;;;;5009516;28;20050;-76
2022/10/08 00:02:44;;;;;;;11.40;3.30;;;13.30;99.90;;;;;;5010159;28;20042;-76
2022/10/08 00:05:11;;;;;;;20.00;3.75;;;13.30;99.90;;;;;;5009859;28;20045;-76
2022/10/08 00:07:38;;;;;;;16.23;3.78;;;13.40;99.90;;;;;;5008937;28;20042;-76
2022/10/08 00:10:06;;;;;;;12.13;3.72;;;13.30;99.90;;;;;;5010094;28;20046;-76
2022/10/08 00:12:35;;;;;;;18.50;3.80;;;13.30;99.90;;;;;;5010062;28;20073;-76
2022/10/08 00:15:02;;;;;;;15.05;3.97;;;13.40;99.90;;;;;;5009727;28;20053;-76
2022/10/08 00:17:29;;;;;;;12.25;3.25;;;13.30;99.90;;;;;;5009238;28;20044;-75
2022/10/08 00:19:56;;;;;;;13.55;3.50;;;13.40;99.90;;;;;;5009579;28;20045;-76
2022/10/08 00:22:24;;;;;;;11.65;3.58;;;13.40;99.90;;;;;;5009729;28;20042;-75
2022/10/08 00:24:52;;;;;;;20.90;3.90;;;13.40;99.90;;;;;;5009476;28;20052;-76
2022/10/08 00:27:22;;;;;;;12.63;3.70;;;13.40;99.90;;;;;;5009193;28;20069;-76
2022/10/08 00:29:51;;;;;;;17.37;4.13;;;13.40;99.90;;;;;;5009640;28;20053;-76
2022/10/08 00:32:18;;;;;;;16.38;4.32;;;13.50;99.90;;;;;;5009727;28;20049;-75
2022/10/08 00:34:46;;;;;;;16.60;3.58;;;13.40;99.90;;;;;;5022356;28;20045;-76
2022/10/08 00:37:14;;;;;;;13.13;3.38;;;13.40;99.90;;;;;;5020085;28;20132;-76
2022/10/08 00:39:41;;;;;;;18.10;4.00;;;13.40;99.90;;;;;;5009538;28;20041;-75
2022/10/08 00:42:10;;;;;;;14.10;3.55;;;13.40;99.90;;;;;;5020109;28;20042;-76
2022/10/08 00:44:54;;;;;;;12.93;3.95;;;13.50;99.90;;;;;;5018231;28;20836;-76
2022/10/08 00:47:28;;;;;;;15.43;3.22;;;13.50;99.90;;;;;;5000159;28;20064;-76
2022/10/08 00:49:58;;;;;;;15.25;3.53;;;13.50;99.90;;;;;;5008980;28;20058;-75
2022/10/08 00:52:26;;;;;;;12.45;3.85;;;13.50;99.90;;;;;;5009423;28;20060;-76
2022/10/08 00:54:53;;;;;;;17.63;3.83;;;13.50;99.90;;;;;;5009164;28;20073;-76
2022/10/08 00:57:21;;;;;;;15.25;3.03;;;13.50;99.90;;;;;;5008309;28;20073;-76
2022/10/08 00:59:48;;;;;;;11.15;3.30;;;13.40;99.90;;;;;;5016723;28;20052;-76
2022/10/08 01:02:18;;;;;;;10.30;3.70;;;13.40;99.90;;;;;;5025363;28;20052;-76
2022/10/08 01:04:45;;;;;;;13.73;3.30;;;13.50;99.90;;;;;;5015094;28;20121;-76
2022/10/08 01:07:18;;;;;;;15.63;3.15;;;13.50;99.90;;;;;;5010361;28;20127;-75
2022/10/08 01:09:50;;;;;;;13.48;3.88;;;13.50;99.90;;;;;;5010547;28;20097;-76
2022/10/08 01:12:26;;;;;;;17.95;4.05;;;13.50;99.90;;;;;;5017374;28;20498;-76
2022/10/08 01:14:55;;;;;;;17.40;3.60;;;13.50;99.90;;;;;;5014182;28;20051;-76
2022/10/08 01:17:28;;;;;;;10.82;3.20;;;13.50;99.90;;;;;;5007787;28;20061;-76
2022/10/08 01:20:16;;;;;;;14.13;3.60;;;13.50;99.90;;;;;;5022037;28;20050;-75
2022/10/08 01:23:31;;;;;;;12.07;3.28;;;13.50;99.90;;;;;;5018216;28;20046;-76
2022/10/08 01:26:08;;;;;;;13.57;3.35;;;13.50;99.90;;;;;;5000495;28;20058;-76
2022/10/08 01:28:41;;;;;;;8.35;2.72;;;13.50;99.90;;;;;;5009056;28;20046;-76
2022/10/08 01:31:10;;;;;;;13.32;3.60;;;13.50;99.90;;;;;;4992260;28;20057;-76
2022/10/08 01:33:42;;;;;;;12.70;3.35;;;13.50;99.90;;;;;;5008773;28;20498;-76
2022/10/08 01:36:09;;;;;;;14.60;3.25;;;13.50;99.90;;;;;;5028335;28;20049;-76
2022/10/08 01:38:40;;;;;;;17.42;3.60;;;13.50;99.90;;;;;;5011013;28;20069;-76
2022/10/08 01:41:09;;;;;;;11.27;3.60;;;13.60;99.90;;;;;;5018569;28;20041;-76
2022/10/08 01:43:42;;;;;;;15.70;3.33;;;13.50;99.90;;;;;;5008767;28;20441;-76
2022/10/08 01:46:13;;;;;;;17.33;3.47;;;13.60;99.90;;;;;;5008647;28;20058;-76
2022/10/08 01:48:41;;;;;;;10.57;3.13;;;13.60;99.90;;;;;;5008869;28;20050;-76
2022/10/08 01:51:13;;;;;;;19.50;3.60;;;13.60;99.90;;;;;;5007335;28;20058;-76
2022/10/08 01:53:40;;;;;;;;;;;13.60;99.90;;;;;;5009161;28;20042;-76
2022/10/08 01:56:10;;;;;;;12.90;3.65;;;13.60;99.90;;;;;;5008425;28;19921;-75
2022/10/08 01:58:43;;;;;;;14.20;2.90;;;13.60;99.90;;;;;;5008768;28;20042;-76
2022/10/08 02:01:13;;;;;;;17.48;3.70;;;13.60;99.90;;;;;;5007928;28;20041;-76
2022/10/08 02:04:31;;;;;;;14.02;2.95;;;13.60;99.90;;;;;;5008285;28;20050;-76
2022/10/08 02:06:35;;;;;;;16.02;3.60;;;13.70;99.90;;;;;;5001014;28;20131;-76
2022/10/08 02:09:04;;;;;;;10.00;2.90;;;13.70;99.90;;;;;;5008661;28;20441;-76
2022/10/08 02:11:32;;;;;;;9.32;2.97;;;13.70;99.90;;;;;;5008329;28;20049;-75
2022/10/08 02:14:00;;;;;;;12.57;3.35;;;13.70;99.90;;;;;;5008530;28;20042;-76
2022/10/08 02:16:29;;;;;;;12.65;2.78;;;13.70;99.90;;;;;;5010130;28;20054;-76
2022/10/08 02:19:01;;;;;;;12.38;3.30;;;13.70;99.90;;;;;;5028276;28;20047;-76
2022/10/08 02:21:29;;;;;;;15.55;3.22;;;13.70;99.90;;;;;;5012755;28;20041;-76
2022/10/08 02:24:00;;;;;;;15.80;3.30;;;13.70;99.90;;;;;;5009381;28;20052;-76
2022/10/08 02:26:29;;;;;;;;;;;13.70;99.90;;;;;;5012108;28;20048;-76
2022/10/08 02:29:00;;;;;;;9.75;2.58;;;13.70;99.90;;;;;;4992280;28;20024;-76
2022/10/08 02:31:32;;;;;;;8.70;2.72;;;13.70;99.90;;;;;;5018772;28;20033;-76
2022/10/08 02:34:04;;;;;;;12.40;2.97;;;13.90;99.90;;;;;;5015002;28;20487;-75
2022/10/08 02:36:34;;;;;;;9.73;2.63;;;13.80;99.90;;;;;;5024677;28;20037;-76
2022/10/08 02:39:03;;;;;;;14.95;3.58;;;13.80;99.90;;;;;;5022137;28;20503;-76
2022/10/08 02:41:32;;;;;;;17.65;3.63;;;13.80;99.90;;;;;;5015683;28;20046;-76
2022/10/08 02:44:05;;;;;;;10.88;3.53;;;13.80;99.90;;;;;;5011361;28;20049;-76
2022/10/08 02:46:35;;;;;;;11.77;2.95;;;13.80;99.90;;;;;;5011188;28;20108;-76
2022/10/08 02:49:05;;;;;;;12.45;3.70;;;13.80;99.90;;;;;;5011608;28;20062;-76
2022/10/08 02:51:34;;;;;;;10.90;2.65;;;13.90;99.90;;;;;;5010827;28;20046;-76
2022/10/08 02:54:03;;;;;;;13.23;2.92;;;13.90;99.90;;;;;;5012560;28;20081;-76
2022/10/08 02:56:33;;;;;;;16.02;3.08;;;13.90;99.90;;;;;;5030697;28;20520;-76
2022/10/08 02:59:02;;;;;;;12.02;2.90;;;13.90;99.90;;;;;;5022658;28;20045;-76
2022/10/08 03:01:36;;;;;;;14.65;3.45;;;13.90;99.90;;;;;;5017782;28;20049;-76
2022/10/08 03:04:06;;;;;;;14.68;3.22;;;13.90;99.90;;;;;;5011310;28;20042;-76
2022/10/08 03:06:34;;;;;;;16.42;4.35;;;13.90;99.90;;;;;;5011058;28;20046;-76
2022/10/08 03:09:02;;;;;;;15.88;3.65;;;14.00;99.90;;;;;;5011055;28;20046;-76
2022/10/08 03:11:30;;;;;;;13.80;3.15;;;14.00;99.90;;;;;;5010466;28;20140;-76
2022/10/08 03:13:58;;;;;;;17.88;3.83;;;14.00;99.90;;;;;;5010922;28;20485;-76
2022/10/08 03:16:32;;;;;;;13.48;3.35;;;14.00;99.90;;;;;;5010577;28;20046;-77
2022/10/08 03:18:59;;;;;;;15.38;3.25;;;14.00;99.90;;;;;;4993391;28;20052;-76
2022/10/08 03:21:27;;;;;;;12.60;3.45;;;14.00;99.90;;;;;;5010484;28;20038;-76
2022/10/08 03:23:54;;;;;;;10.85;2.85;;;14.00;99.90;;;;;;4993185;28;20777;-76
2022/10/08 03:26:27;;;;;;;12.52;3.33;;;14.00;99.90;;;;;;5010296;28;20049;-76
2022/10/08 03:29:11;;;;;;;15.23;3.88;;;14.00;99.90;;;;;;5010645;28;20045;-75
2022/10/08 03:31:39;;;;;;;9.68;3.63;;;14.00;99.90;;;;;;5009326;28;20045;-76
2022/10/08 03:34:06;;;;;;;13.55;3.92;;;14.00;99.90;;;;;;5025347;28;20045;-76
2022/10/08 03:36:33;;;;;;;16.02;3.92;;;14.00;99.90;;;;;;5015349;28;20069;-76
2022/10/08 03:39:00;;;;;;;13.70;4.13;;;14.00;99.90;;;;;;5010791;28;20049;-76
2022/10/08 03:41:30;;;;;;;15.15;4.22;;;14.00;99.90;;;;;;5010364;28;20057;-76
2022/10/08 03:43:57;;;;;;;19.77;4.32;;;14.00;99.90;;;;;;5012624;28;20052;-76
2022/10/08 03:46:25;;;;;;;13.27;4.78;;;14.00;99.90;;;;;;5016930;28;20138;-76
2022/10/08 03:48:53;;;;;;;11.52;3.92;;;14.00;99.90;;;;;;5018942;28;20415;-76
2022/10/08 03:51:22;;;;;;;13.50;3.75;;;14.00;99.90;;;;;;5011160;28;20049;-76
2022/10/08 03:53:49;;;;;;;13.85;3.97;;;13.90;99.90;;;;;;5017710;28;20549;-76
2022/10/08 03:56:17;;;;;;;13.45;4.03;;;13.90;99.90;;;;;;5020449;28;20481;-76
2022/10/08 03:58:45;;;;;;;12.68;4.63;;;13.90;99.90;;;;;;5020139;28;20037;-76
2022/10/08 04:01:13;;;;;;;13.52;3.97;;;13.90;99.90;;;;;;5015896;28;20042;-76
2022/10/08 04:03:40;;;;;;;19.60;4.60;;;13.90;99.90;;;;;;5010232;28;20052;-76
2022/10/08 04:06:09;;;;;;;19.33;4.97;;;13.90;99.90;;;;;;5009538;28;20072;-76
2022/10/08 04:08:36;;;;;;;11.30;3.90;;;13.90;99.90;;;;;;5010235;28;20073;-76
2022/10/08 04:11:04;;;;;;;15.48;4.30;;;13.90;99.90;;;;;;4991531;28;20414;-76
2022/10/08 04:13:31;;;;;;;13.32;4.53;;;13.90;99.90;;;;;;5009165;28;20045;-76
2022/10/08 04:16:01;;;;;;;15.25;3.85;;;13.90;99.90;;;;;;5009468;28;20045;-76
2022/10/08 04:18:28;;;;;;;10.70;3.88;;;14.10;99.90;;;;;;5009972;28;20042;-76
2022/10/08 04:20:58;;;;;;;14.20;4.88;;;13.90;99.90;;;;;;5009099;28;20057;-76
2022/10/08 04:23:26;;;;;;;16.75;3.92;;;13.90;99.90;;;;;;5009771;28;20050;-77
2022/10/08 04:25:54;;;;;;;13.57;4.35;;;13.90;99.90;;;;;;5053841;23;20452;-77
2022/10/08 04:28:21;;;;;;;13.82;4.28;;;13.90;99.90;;;;;;5009831;28;20050;-76
2022/10/08 04:30:59;;;;;;;10.82;3.80;;;13.90;99.90;;;;;;5009128;28;20034;-76
2022/10/08 04:33:26;;;;;;;13.30;4.35;;;13.80;99.90;;;;;;5002566;28;20380;-76
2022/10/08 04:35:53;;;;;;;17.92;4.35;;;13.90;99.90;;;;;;5030707;23;20056;31
2022/10/08 04:38:20;;;;;;;13.23;3.80;;;13.90;99.90;;;;;;5003445;28;20053;-82
2022/10/08 04:40:48;;;;;;;18.92;4.70;;;13.80;99.90;;;;;;5005115;28;20052;-81
2022/10/08 04:43:15;;;;;;;13.23;4.53;;;13.80;99.90;;;;;;5006574;28;20050;-84
2022/10/08 04:45:43;;;;;;;14.35;4.90;;;13.80;99.90;;;;;;4997599;28;20064;-84
2022/10/08 04:48:10;;;;;;;20.88;4.90;;;13.80;99.90;;;;;;4973604;28;20046;-84
2022/10/08 04:50:37;;;;;;;18.23;5.30;;;13.80;99.90;;;;;;4979868;28;20047;-84
2022/10/08 04:53:04;;;;;;;18.35;5.55;;;13.80;99.90;;;;;;4988515;28;20057;-84
2022/10/08 04:55:31;;;;;;;17.63;5.53;;;13.80;99.90;;;;;;4979453;28;20057;-84
2022/10/08 04:57:59;;;;;;;22.67;5.35;;;13.80;99.90;;;;;;4986714;28;20049;-84
2022/10/08 05:00:27;;;;;;;16.50;5.43;;;13.80;99.90;;;;;;4989566;28;20098;-84
2022/10/08 05:02:53;;;;;;;13.27;5.63;;;13.90;99.90;;;;;;4988733;28;20042;-84
2022/10/08 05:05:20;;;;;;;18.00;6.10;;;13.80;99.90;;;;;;4985779;28;20058;-83
2022/10/08 05:07:47;;;;;;;15.38;5.88;;;13.80;99.90;;;;;;4977928;28;20039;-84
2022/10/08 05:10:14;;;;;;;15.73;6.20;;;13.80;99.90;;;;;;4987553;28;20038;-84
2022/10/08 05:12:41;;;;;;;16.70;6.75;;;13.80;99.90;;;;;;4987935;28;20056;-85
2022/10/08 05:15:10;;;;;;;16.45;6.57;;;13.80;99.90;;;;;;4987514;28;20046;-84
2022/10/08 05:17:37;;;;;;;13.25;5.78;;;13.80;99.90;;;;;;4977861;28;20138;-84
2022/10/08 05:20:05;;;;;;;15.50;6.78;;;13.80;99.90;;;;;;4987428;28;20097;-84
2022/10/08 05:22:32;;;;;;;17.17;6.28;;;13.80;99.90;;;;;;4988904;28;20589;-84
2022/10/08 05:24:59;;;;;;;13.25;6.00;;;13.90;99.90;;;;;;4988329;28;20046;-84
2022/10/08 05:27:25;;;;;;;14.20;6.10;;;13.90;99.90;;;;;;4977198;28;20053;-84
2022/10/08 05:29:52;;;;;;;17.05;5.93;;;13.90;99.90;;;;;;4988738;28;20049;-84
2022/10/08 05:32:20;;;;;;;15.02;5.72;;;13.90;99.90;;;;;;4978269;28;20043;-84
2022/10/08 05:34:47;;;;;;;13.18;5.57;;;13.90;99.90;;;;;;4969940;28;20054;-84
2022/10/08 05:37:14;;;;;;;15.10;6.28;;;13.90;99.90;;;;;;4986250;28;20051;-84
2022/10/08 05:39:41;;;;;;;22.83;6.63;;;13.90;99.90;;;;;;4982993;28;20046;-84
2022/10/08 05:42:08;;;;;;;14.90;5.95;;;13.90;99.90;;;;;;4987082;28;20418;-84
2022/10/08 05:44:35;;;;;;;9.32;5.22;;;13.90;99.90;;;;;;4970229;28;20054;-84
2022/10/08 05:47:02;;;;;;;16.10;5.65;;;13.90;99.90;;;;;;4970867;28;20054;-84
2022/10/08 05:49:30;;;;;;;14.80;5.80;;;13.90;99.90;;;;;;4990318;28;20061;-84
2022/10/08 05:51:57;;;;;;;19.20;5.70;;;13.90;99.90;;;;;;4994830;28;20084;-84
2022/10/08 05:54:24;;;;;;;14.20;5.30;;;13.90;99.90;;;;;;4988030;28;20042;-84
2022/10/08 05:56:51;;;;;;;14.40;5.70;;;13.90;99.90;;;;;;4973675;28;20055;-84
2022/10/08 05:59:20;;;;;;;17.48;5.72;;;13.90;99.90;;;;;;4975349;28;20042;-84
2022/10/08 06:01:48;;;;;;;12.35;5.30;;;13.90;99.90;;;;;;4996893;28;20045;-84
2022/10/08 06:04:15;;;;;;;16.95;5.60;;;13.90;99.90;;;;;;4990682;28;20043;-84
2022/10/08 06:06:45;;;;;;;13.80;5.53;;;13.90;99.90;;;;;;5009385;28;20585;-84
2022/10/08 06:09:14;;;;;;;16.30;5.60;;;13.90;99.90;;;;;;4997574;28;20069;-84
2022/10/08 06:11:41;;;;;;;16.40;5.55;;;13.90;99.90;;;;;;4985031;28;20065;-84
2022/10/08 06:14:10;;;;;;;10.38;5.05;;;13.90;99.90;;;;;;4992437;28;20466;-84
2022/10/08 06:16:37;;;;;;;14.13;5.28;;;13.90;99.90;;;;;;4973089;28;20053;-84
2022/10/08 06:19:04;;;;;;;11.93;5.25;;;13.90;99.90;;;;;;4973370;28;20055;-84
2022/10/08 06:21:31;;;;;;;15.93;5.70;;;13.90;99.90;;;;;;4984734;28;20046;-84
2022/10/08 06:24:01;;;;;;;14.05;5.68;;;13.90;99.90;;;;;;4989197;28;20046;-84
2022/10/08 06:26:31;;;;;;;13.52;5.72;;;13.90;99.90;;;;;;4990072;28;20039;-84
2022/10/08 06:28:58;;;;;;;12.30;6.13;;;14.00;99.90;;;;;;4989006;28;20042;-84
2022/10/08 06:31:25;;;;;;;15.90;6.20;;;13.90;99.90;;;;;;4990176;28;20050;-84
2022/10/08 06:33:55;;;;;;;14.63;5.82;;;14.00;99.90;;;;;;4992750;28;20058;-84
2022/10/08 06:36:24;;;;;;;11.70;5.63;;;14.00;99.90;;;;;;4989716;28;20046;-84
2022/10/08 06:38:51;;;;;;;16.52;6.80;;;14.10;99.90;;;;;;4994862;28;20041;-84
2022/10/08 06:41:20;;;;;;;16.23;6.70;;;14.00;99.90;;;;;;4991548;28;20053;-84
2022/10/08 06:43:47;;;;;;;15.27;6.57;;;14.00;99.90;;;;;;4984030;28;20053;-84
2022/10/08 06:46:14;;;;;;;14.75;6.72;;;14.00;99.90;;;;;;4989389;28;20050;-84
2022/10/08 06:48:41;;;;;;;17.05;7.22;;;14.00;99.90;;;;;;4989174;28;20047;-84
2022/10/08 06:51:11;;;;;;;15.10;8.15;;;14.00;99.90;;;;;;4990320;28;20038;-84
2022/10/08 06:53:38;;;;;;;16.75;8.40;;;14.00;99.90;;;;;;4985053;28;20124;-84
2022/10/08 06:56:07;;;;;;;18.20;8.63;;;14.00;99.90;;;;;;4987724;28;20057;-84
2022/10/08 06:58:36;;;;;;;17.45;8.88;;;14.00;99.90;;;;;;4990673;28;20077;-84
2022/10/08 07:01:04;;;;;;;16.27;9.00;;;14.00;99.90;;;;;;4986367;28;20050;-84
2022/10/08 07:03:32;;;;;;;21.63;10.38;;;14.10;99.90;;;;;;4991190;28;20035;-85
2022/10/08 07:06:00;;;;;;;20.98;10.65;;;14.10;99.90;;;;;;4989630;28;20059;-84
2022/10/08 07:08:27;;;;;;;21.27;11.20;;;14.10;99.90;;;;;;4985892;28;20525;-84
2022/10/08 07:10:54;;;;;;;19.15;12.45;;;14.10;99.90;;;;;;4989229;28;21939;-84
2022/10/08 07:13:21;;;;;;;21.70;11.73;;;14.10;99.90;;;;;;4988308;28;20046;-84
2022/10/08 07:15:50;;;;;;;23.73;12.68;;;14.20;99.90;;;;;;4983984;28;20510;-84
2022/10/08 07:18:16;;;;;;;20.42;13.30;;;14.20;99.90;;;;;;4988145;28;20039;-84
2022/10/08 07:20:54;;;;;;;24.50;13.32;;;14.20;99.90;;;;;;4990210;28;20042;-84
2022/10/08 07:23:21;;;;;;;23.58;13.25;;;14.20;99.90;;;;;;4988440;28;20058;-84
2022/10/08 07:25:55;;;;;;;21.63;12.50;;;14.20;99.90;;;;;;4990066;28;20054;-84
2022/10/08 07:28:22;;;;;;;20.15;12.18;;;14.20;99.90;;;;;;4987906;28;20042;-84
2022/10/08 07:30:51;;;;;;;24.08;12.65;;;14.20;99.90;;;;;;4987453;28;20139;-84
2022/10/08 07:33:17;;;;;;;19.60;12.32;;;14.30;99.90;;;;;;4982391;28;20046;-84
2022/10/08 07:35:44;;;;;;;27.80;14.63;;;14.20;99.90;;;;;;4985062;28;20054;-84
2022/10/08 07:38:11;;;;;;;25.90;14.27;;;14.40;99.90;;;;;;4986656;28;20052;-84
2022/10/08 07:40:38;;;;;;;25.30;14.27;;;14.30;99.90;;;;;;4985047;28;20042;-84
2022/10/08 07:43:05;;;;;;;24.83;13.13;;;14.30;99.90;;;;;;4985941;28;20666;-84
2022/10/08 07:45:32;;;;;;;21.20;13.30;;;14.30;99.90;;;;;;4988329;28;20135;-84
2022/10/08 07:48:00;;;;;;;21.83;12.93;;;14.30;99.90;;;;;;4990944;28;20050;-84
2022/10/08 07:50:27;;;;;;;23.60;13.48;;;14.40;99.90;;;;;;4986321;28;20750;-84
2022/10/08 07:52:54;;;;;;;21.88;12.02;;;14.40;99.90;;;;;;4985778;28;20076;-84
2022/10/08 07:55:21;;;;;;;23.00;13.55;;;14.40;99.90;;;;;;4989465;28;20403;-84
2022/10/08 07:57:48;;;;;;;22.90;14.73;;;14.40;99.90;;;;;;4989598;28;20053;-84
2022/10/08 08:00:15;;;;;;;25.27;14.43;;;14.40;99.90;;;;;;4979466;28;20061;-84
2022/10/08 08:02:41;;;;;;;29.42;15.10;;;14.50;99.90;;;;;;4989942;28;20129;-84
2022/10/08 08:05:10;;;;;;;33.78;17.55;;;14.40;99.90;;;;;;5005181;28;20433;-84
2022/10/08 08:07:37;;;;;;;27.08;16.10;;;14.50;99.90;;;;;;4989134;28;20038;-84
2022/10/08 08:10:04;;;;;;;31.33;17.50;;;14.50;99.90;;;;;;4988166;28;20042;-84
2022/10/08 08:12:31;;;;;;;29.83;16.48;;;14.50;99.90;;;;;;4987997;28;20046;-84
2022/10/08 08:14:58;;;;;;;32.58;16.70;;;14.50;99.90;;;;;;4980575;28;20077;-84
2022/10/08 08:17:25;;;;;;;28.08;15.98;;;14.60;99.90;;;;;;4982742;28;20097;-85
2022/10/08 08:19:52;;;;;;;32.47;17.02;;;14.60;99.90;;;;;;4993062;28;20034;-84
2022/10/08 08:22:20;;;;;;;28.73;15.32;;;14.60;99.90;;;;;;4984240;28;20065;-87
2022/10/08 08:24:47;;;;;;;29.67;15.98;;;14.60;99.90;;;;;;4986426;28;20043;-86
2022/10/08 08:27:14;;;;;;;25.58;15.48;;;14.60;99.90;;;;;;4980616;28;20042;-85
2022/10/08 08:29:41;;;;;;;27.88;14.93;;;14.60;99.90;;;;;;4980832;28;20042;-84
2022/10/08 08:32:08;;;;;;;25.70;14.93;;;14.60;99.90;;;;;;4982371;28;20223;-85
2022/10/08 08:34:34;;;;;;;27.70;15.20;;;14.70;99.90;;;;;;4984845;28;20047;-84
2022/10/08 08:37:01;;;;;;;25.35;14.95;;;14.70;99.90;;;;;;4990582;28;20117;-83
2022/10/08 08:39:30;;;;;;;25.20;15.05;;;14.70;99.90;;;;;;4995479;28;20038;-83
2022/10/08 08:42:18;;;;;;;28.13;14.63;;;14.70;99.90;;;;;;4992575;28;20046;-85
2022/10/08 08:44:47;;;;;;;26.58;15.13;;;14.70;99.90;;;;;;4970621;28;20050;-85
2022/10/08 08:47:19;;;;;;;29.25;15.18;;;14.70;99.90;;;;;;4990881;28;20050;-83
2022/10/08 08:49:48;;;;;;;26.52;14.48;;;14.70;99.90;;;;;;4994469;28;20050;-84
2022/10/08 08:52:17;;;;;;;27.35;14.40;;;14.80;99.90;;;;;;4981140;28;20050;-84
2022/10/08 08:54:48;;;;;;;24.67;13.65;;;14.80;99.90;;;;;;4977596;28;20303;-84
2022/10/08 08:57:34;;;;;;;31.27;14.27;;;14.80;99.90;;;;;;4986141;28;20126;-85
2022/10/08 09:00:04;;;;;;;25.95;13.88;;;14.90;99.90;;;;;;4976032;28;20385;-84
2022/10/08 09:02:35;;;;;;;25.70;12.57;;;14.90;99.90;;;;;;4991250;28;20042;-84
2022/10/08 09:05:06;;;;;;;26.42;13.15;;;14.90;99.90;;;;;;4986404;28;20082;-83
2022/10/08 09:07:39;;;;;;;24.27;12.90;;;14.90;99.90;;;;;;4983613;28;20042;-83
2022/10/08 09:10:13;;;;;;;22.25;11.80;;;14.90;99.90;;;;;;4985872;28;20046;-84
2022/10/08 09:12:43;;;;;;;20.25;12.48;;;15.00;99.90;;;;;;4978405;28;20474;-84
2022/10/08 09:15:16;;;;;;;28.63;11.30;;;15.00;99.90;;;;;;4979593;28;20452;-85
2022/10/08 09:17:44;;;;;;;20.50;11.27;;;15.10;99.90;;;;;;4989001;28;20046;-85
2022/10/08 09:20:14;;;;;;;24.92;10.85;;;15.00;99.90;;;;;;4985027;28;20042;-85
2022/10/08 09:22:41;;;;;;;20.33;10.82;;;15.10;99.90;;;;;;4994324;28;20057;-85
2022/10/08 09:25:15;;;;;;;22.77;10.35;;;15.10;99.90;;;;;;4990788;28;20042;-85
2022/10/08 09:27:46;;;;;;;20.05;9.68;;;15.20;99.90;;;;;;4984309;28;20057;-84
2022/10/08 09:30:26;;;;;;;;;;;15.10;99.90;;;;;;4999555;28;20160;-85
2022/10/08 09:32:53;;;;;;;23.92;10.63;;;15.20;99.90;;;;;;4992627;28;19926;-85
2022/10/08 09:35:20;;;;;;;23.85;9.85;;;15.20;99.90;;;;;;4995280;28;20042;-85
2022/10/08 09:37:48;;;;;;;16.13;8.82;;;15.20;99.90;;;;;;4990843;28;20050;-84
2022/10/08 09:40:22;;;;;;;20.23;8.60;;;15.20;99.90;;;;;;4990757;28;20057;-84
2022/10/08 09:43:12;;;;;;;19.15;8.85;;;15.20;99.90;;;;;;4991943;28;20046;-85
2022/10/08 09:45:41;;;;;;;19.00;8.20;;;15.20;99.90;;;;;;5013458;28;20077;-84
2022/10/08 09:48:20;;;;;;;23.10;8.25;;;15.30;99.90;;;;;;4994871;28;20050;-84
2022/10/08 09:50:59;;;;;;;15.68;7.80;;;15.30;99.90;;;;;;4989907;28;20049;-84
2022/10/08 09:53:29;;;;;;;20.27;8.00;;;15.30;99.90;;;;;;4979258;28;20231;-85
2022/10/08 09:55:59;;;;;;;17.50;6.80;;;15.30;99.90;;;;;;4982631;28;20040;-84
2022/10/08 09:58:29;;;;;;;15.88;6.28;;;15.30;99.90;;;;;;4985870;28;20047;-86
2022/10/08 10:01:02;;;;;;;14.82;5.93;;;15.30;99.90;;;;;;4983937;28;20038;-85
2022/10/08 10:03:29;;;;;;;16.30;6.07;;;15.40;99.90;;;;;;4988125;28;20039;-84
2022/10/08 10:05:57;;;;;;;16.40;6.45;;;15.40;99.90;;;;;;4982187;28;20046;-85
2022/10/08 10:08:49;;;;;;;12.45;6.00;;;15.40;99.90;;;;;;4992920;28;20073;-84
2022/10/08 10:11:22;;;;;;;12.00;5.95;;;15.40;99.90;;;;;;4990904;28;20046;-84
2022/10/08 10:13:50;;;;;;;15.27;5.80;;;15.50;99.90;;;;;;4986576;28;20962;-84
2022/10/08 10:16:26;;;;;;;13.32;5.60;;;15.40;99.90;;;;;;4985171;28;20039;-84
2022/10/08 10:18:56;;;;;;;10.80;5.35;;;15.40;99.90;;;;;;4984479;28;20050;-84
2022/10/08 10:21:30;;;;;;;12.50;5.60;;;15.40;99.90;;;;;;4991083;28;20046;-86
2022/10/08 10:24:05;;;;;;;14.75;5.65;;;15.40;99.90;;;;;;4993190;28;20100;-86
2022/10/08 10:26:37;;;;;;;14.35;6.20;;;15.40;99.90;;;;;;4987066;28;20464;-87
2022/10/08 10:29:07;;;;;;;9.90;4.60;;;15.50;99.90;;;;;;4983300;28;20076;-87
2022/10/08 10:31:36;;;;;;;16.40;4.63;;;15.50;99.90;;;;;;4985766;28;20030;-87
2022/10/08 10:34:08;;;;;;;11.65;3.50;;;15.60;99.90;;;;;;4986446;28;20042;-85
2022/10/08 10:36:38;;;;;;;7.53;3.40;;;15.60;99.90;;;;;;4981524;28;20042;-84
2022/10/08 10:39:12;;;;;;;7.13;2.85;;;15.60;99.90;;;;;;5040496;22;20135;-75
2022/10/08 10:41:44;;;;;;;10.68;3.03;;;15.70;99.90;;;;;;5017441;28;20081;-75
2022/10/08 10:44:13;;;;;;;9.80;3.42;;;15.70;99.90;;;;;;5019025;28;20850;-75
2022/10/08 10:46:42;;;;;;;10.55;3.05;;;15.90;99.90;;;;;;5017659;28;20116;-76
2022/10/08 10:49:13;;;;;;;10.13;3.08;;;15.70;99.90;;;;;;5009107;28;20434;-76
2022/10/08 10:51:51;;;;;;;8.20;3.40;;;15.70;99.90;;;;;;4997735;28;20117;-76
2022/10/08 10:54:42;;;;;;;8.70;3.20;;;15.80;99.90;;;;;;5007995;28;20042;-77
2022/10/08 10:57:23;;;;;;;14.07;3.77;;;15.80;99.90;;;;;;5010145;28;20065;-77
2022/10/08 10:59:58;;;;;;;8.43;3.60;;;15.90;99.90;;;;;;5010562;28;20301;-77
2022/10/08 11:02:29;;;;;;;9.63;3.17;;;15.90;99.90;;;;;;5001036;28;20569;-78
2022/10/08 11:05:03;;;;;;;9.80;2.92;;;16.00;99.90;;;;;;5008606;28;20046;-77
2022/10/08 11:08:09;;;;;;;9.85;2.38;;;16.00;99.90;;;;;;4998272;28;20044;-77
2022/10/08 11:10:47;;;;;;;8.60;2.03;;;16.10;99.90;;;;;;5005161;28;20056;-77
2022/10/08 11:13:30;;;;;;;7.75;2.20;;;16.20;99.90;;;;;;4999368;28;20052;-77
2022/10/08 11:16:05;;;;;;;8.88;3.00;;;16.20;99.90;;;;;;4999234;28;20050;-78
2022/10/08 11:18:36;;;;;;;6.45;2.50;;;16.20;99.90;;;;;;4991502;28;20050;-77
2022/10/08 11:21:16;;;;;;;8.88;3.13;;;16.20;99.90;;;;;;5000300;28;20050;-78
2022/10/08 11:23:53;;;;;;;13.82;2.90;;;16.20;99.90;;;;;;5004671;28;20048;-78
2022/10/08 11:26:24;;;;;;;8.38;2.30;;;16.20;99.90;;;;;;5002605;28;20502;-77
2022/10/08 11:29:00;;;;;;;6.70;2.45;;;16.30;99.90;;;;;;5000908;28;20502;-77
2022/10/08 11:31:33;;;;;;;10.10;2.35;;;16.30;99.90;;;;;;4998994;28;20034;-77
2022/10/08 11:34:02;;;;;;;8.15;2.00;;;16.30;99.90;;;;;;4997446;28;20042;-77
2022/10/08 11:36:35;;;;;;;11.80;2.75;;;16.30;99.90;;;;;;4998793;28;20128;-77
2022/10/08 11:39:07;;;;;;;6.55;1.85;;;16.30;99.90;;;;;;4995196;28;20125;-77
2022/10/08 11:41:42;;;;;;;9.30;2.25;;;16.20;99.90;;;;;;5001057;28;20049;-77
2022/10/08 11:44:11;;;;;;;8.70;2.13;;;16.20;99.90;;;;;;5002160;28;20407;-77
2022/10/08 11:46:37;;;;;;;5.75;1.85;;;16.20;99.20;;;;;;4994104;28;20069;-77
2022/10/08 11:49:44;;;;;;;6.70;2.13;;;16.20;99.60;;;;;;4999776;28;20042;-78
2022/10/08 11:52:14;;;;;;;8.15;1.88;;;16.20;98.50;;;;;;5000485;28;20034;-77
2022/10/08 11:54:41;;;;;;;7.13;1.88;;;16.20;99.10;;;;;;5002345;28;20057;-77
2022/10/08 11:57:13;;;;;;;7.28;1.67;;;16.20;99.70;;;;;;5003359;28;20044;-77
2022/10/08 11:59:42;;;;;;;7.35;1.40;;;16.20;99.10;;;;;;5003867;28;20042;-77
2022/10/08 12:02:22;;;;;;;8.73;1.50;;;16.20;97.90;;;;;;4999984;28;20085;-77
2022/10/08 12:04:51;;;;;;;4.88;1.60;;;16.20;98.90;;;;;;4998291;28;20105;-78
2022/10/08 12:07:23;;;;;;;6.32;1.52;;;16.20;99.00;;;;;;4998885;28;20056;-77
2022/10/08 12:10:20;;;;;;;4.28;1.20;;;16.20;99.60;;;;;;5005519;28;20041;-77
2022/10/08 12:13:32;;;;;;;6.43;1.50;;;16.20;98.00;;;;;;4999566;28;20514;-77
2022/10/08 12:16:05;;;;;;;7.90;1.67;;;16.10;97.90;;;;;;4995469;28;20046;-77
2022/10/08 12:18:50;;;;;;;6.78;1.52;;;16.10;97.70;;;;;;5009872;28;20050;-77
2022/10/08 12:21:48;;;;;;;5.47;1.42;;;16.10;97.70;;;;;;5009881;28;20113;-78
2022/10/08 12:24:48;;;;;;;8.05;1.48;;;16.20;97.90;;;;;;5001892;28;20057;-77
2022/10/08 12:27:22;;;;;;;9.55;1.40;;;16.20;99.50;;;;;;4996415;28;20073;-77
2022/10/08 12:29:53;;;;;;;8.77;1.42;;;16.20;99.20;;;;;;5004200;28;20132;-78
2022/10/08 12:32:22;;;;;;;10.82;1.80;;;16.20;99.20;;;;;;5004247;28;20038;-78
2022/10/08 12:34:49;;;;;;;7.88;1.50;;;16.20;99.60;;;;;;5008207;28;20491;-78
2022/10/08 12:37:30;;;;;;;5.85;1.58;;;16.20;99.30;;;;;;5000138;28;20501;-78
2022/10/08 12:40:00;;;;;;;7.40;1.77;;;16.20;99.70;;;;;;4990263;28;20578;-78
2022/10/08 12:42:30;;;;;;;6.80;1.77;;;16.20;99.40;;;;;;4972435;28;20049;-78
2022/10/08 12:45:04;;;;;;;7.00;1.77;;;16.20;98.90;;;;;;5001776;28;20418;-78
2022/10/08 12:47:40;;;;;;;8.07;1.60;;;16.20;98.80;;;;;;5000272;28;20042;-77
2022/10/08 12:50:30;;;;;;;8.48;2.05;;;16.30;99.30;;;;;;5002281;28;20117;-77
2022/10/08 12:52:59;;;;;;;13.18;1.90;;;16.20;99.90;;;;;;4980613;28;20100;-77
2022/10/08 12:55:27;;;;;;;10.20;1.98;;;16.20;99.90;;;;;;4998944;28;20495;-78